createdAt,value
2022-09-26T00:00:01.935Z,282.35
2022-09-26T00:01:02.088Z,282.35
2022-09-26T00:02:02.012Z,282.35
2022-09-26T00:03:01.940Z,282.35
2022-09-26T00:04:01.933Z,282.35
2022-09-26T00:05:01.939Z,282.35
2022-09-26T00:06:01.968Z,282.35
2022-09-26T00:07:01.939Z,282.35
2022-09-26T00:08:01.941Z,282.35
2022-09-26T00:09:01.949Z,282.35
2022-09-26T00:10:01.950Z,282.35
2022-09-26T00:11:01.939Z,282.35
2022-09-26T00:12:01.949Z,282.35
2022-09-26T00:13:01.943Z,282.35
2022-09-26T00:14:01.940Z,282.35
2022-09-26T00:15:01.959Z,282.35
2022-09-26T00:16:01.941Z,282.35
2022-09-26T00:17:02.041Z,282.35
2022-09-26T00:18:01.951Z,282.35
2022-09-26T00:19:01.944Z,282.35
2022-09-26T00:20:01.940Z,282.35
2022-09-26T00:21:01.948Z,282.35
2022-09-26T00:22:01.975Z,282.35
2022-09-26T00:23:01.957Z,282.35
2022-09-26T00:24:01.950Z,282.35
2022-09-26T00:25:01.943Z,282.35
2022-09-26T00:26:01.949Z,282.35
2022-09-26T00:27:01.951Z,282.35
2022-09-26T00:28:01.955Z,282.35
2022-09-26T00:29:01.954Z,282.35
2022-09-26T00:30:01.952Z,282.35
2022-09-26T00:31:02.049Z,282.35
2022-09-26T00:32:01.953Z,282.35
2022-09-26T00:33:01.956Z,282.35
2022-09-26T00:34:01.960Z,282.35
2022-09-26T00:35:01.956Z,282.35
2022-09-26T00:36:01.962Z,282.35
2022-09-26T00:37:01.955Z,282.35
2022-09-26T00:38:01.978Z,282.35
2022-09-26T00:39:01.952Z,282.35
2022-09-26T00:40:01.957Z,282.35
2022-09-26T00:41:02.074Z,282.35
2022-09-26T00:42:01.962Z,282.35
2022-09-26T00:43:01.965Z,282.35
2022-09-26T00:44:01.960Z,282.35
2022-09-26T00:45:01.956Z,282.35
2022-09-26T00:46:02.018Z,282.35
2022-09-26T00:47:01.958Z,282.35
2022-09-26T00:48:01.962Z,282.35
2022-09-26T00:49:01.961Z,282.35
2022-09-26T00:50:01.994Z,282.35
2022-09-26T00:51:01.977Z,282.35
2022-09-26T00:52:01.963Z,282.35
2022-09-26T00:53:01.971Z,282.35
2022-09-26T00:54:02.007Z,282.35
2022-09-26T00:55:01.965Z,282.35
2022-09-26T00:56:01.968Z,282.35
2022-09-26T00:57:01.972Z,282.35
2022-09-26T00:58:01.976Z,282.35
2022-09-26T00:59:01.965Z,282.35
2022-09-26T01:00:01.977Z,282.35
2022-09-26T01:01:02.097Z,282.35
2022-09-26T01:02:02.107Z,282.35
2022-09-26T01:03:01.977Z,282.35
2022-09-26T01:04:01.969Z,282.35
2022-09-26T01:05:01.969Z,282.35
2022-09-26T01:06:01.979Z,282.35
2022-09-26T01:07:01.975Z,282.35
2022-09-26T01:08:01.980Z,282.35
2022-09-26T01:09:01.982Z,282.35
2022-09-26T01:10:02.003Z,282.35
2022-09-26T01:11:01.971Z,282.35
2022-09-26T01:12:01.990Z,282.35
2022-09-26T01:13:01.980Z,282.35
2022-09-26T01:14:01.978Z,282.35
2022-09-26T01:15:01.979Z,282.35
2022-09-26T01:16:01.982Z,282.35
2022-09-26T01:17:02.074Z,282.35
2022-09-26T01:18:01.983Z,282.35
2022-09-26T01:19:01.984Z,282.35
2022-09-26T01:20:01.987Z,282.35
2022-09-26T01:21:01.988Z,282.35
2022-09-26T01:22:01.988Z,282.35
2022-09-26T01:23:01.991Z,282.35
2022-09-26T01:24:01.987Z,282.35
2022-09-26T01:25:01.996Z,282.35
2022-09-26T01:26:02.014Z,282.35
2022-09-26T01:27:01.986Z,282.35
2022-09-26T01:28:01.976Z,282.35
2022-09-26T01:29:01.993Z,282.35
2022-09-26T01:30:02.002Z,282.35
2022-09-26T01:31:02.077Z,282.35
2022-09-26T01:32:01.997Z,282.35
2022-09-26T01:33:01.996Z,282.35
2022-09-26T01:34:01.986Z,282.35
2022-09-26T01:35:01.998Z,282.35
2022-09-26T01:36:01.988Z,282.35
2022-09-26T01:37:01.994Z,282.35
2022-09-26T01:38:01.987Z,282.35
2022-09-26T01:39:01.991Z,282.35
2022-09-26T01:40:01.989Z,282.35
2022-09-26T01:41:01.986Z,282.35
2022-09-26T01:42:02.006Z,282.35
2022-09-26T01:43:01.989Z,282.35
2022-09-26T01:44:01.996Z,282.35
2022-09-26T01:45:02.005Z,282.35
2022-09-26T01:46:02.089Z,282.35
2022-09-26T01:47:01.993Z,282.35
2022-09-26T01:48:01.983Z,282.35
2022-09-26T01:49:01.985Z,282.35
2022-09-26T01:50:02.004Z,282.35
2022-09-26T01:51:01.989Z,282.35
2022-09-26T01:52:02.001Z,282.35
2022-09-26T01:53:01.992Z,282.35
2022-09-26T01:54:01.990Z,282.35
2022-09-26T01:55:01.995Z,282.35
2022-09-26T01:56:01.995Z,282.35
2022-09-26T01:57:02.000Z,282.35
2022-09-26T01:58:02.015Z,282.35
2022-09-26T01:59:01.996Z,282.35
2022-09-26T02:00:01.994Z,282.35
2022-09-26T02:01:02.033Z,282.35
2022-09-26T02:02:02.030Z,282.35
2022-09-26T02:03:01.995Z,282.35
2022-09-26T02:04:02.003Z,282.35
2022-09-26T02:05:01.992Z,282.35
2022-09-26T02:06:02.001Z,282.35
2022-09-26T02:07:01.999Z,282.35
2022-09-26T02:08:02.001Z,282.35
2022-09-26T02:09:02.001Z,282.35
2022-09-26T02:10:02.024Z,282.35
2022-09-26T02:11:02.006Z,282.35
2022-09-26T02:12:02.013Z,282.35
2022-09-26T02:13:02.002Z,282.35
2022-09-26T02:14:02.044Z,282.35
2022-09-26T02:15:02.005Z,282.35
2022-09-26T02:16:02.132Z,282.35
2022-09-26T02:17:02.091Z,282.35
2022-09-26T02:18:02.014Z,282.35
2022-09-26T02:19:02.010Z,282.35
2022-09-26T02:20:02.019Z,282.35
2022-09-26T02:21:02.013Z,282.35
2022-09-26T02:22:02.008Z,282.35
2022-09-26T02:23:02.007Z,282.35
2022-09-26T02:24:02.015Z,282.35
2022-09-26T02:25:02.015Z,282.35
2022-09-26T02:26:02.011Z,282.35
2022-09-26T02:27:02.007Z,282.35
2022-09-26T02:28:02.012Z,282.35
2022-09-26T02:29:02.011Z,282.35
2022-09-26T02:30:02.032Z,282.35
2022-09-26T02:31:02.021Z,282.35
2022-09-26T02:32:02.087Z,282.35
2022-09-26T02:33:02.018Z,282.35
2022-09-26T02:34:02.024Z,282.35
2022-09-26T02:35:02.036Z,282.35
2022-09-26T02:36:02.017Z,282.35
2022-09-26T02:37:02.021Z,282.35
2022-09-26T02:38:02.027Z,282.35
2022-09-26T02:39:02.013Z,282.35
2022-09-26T02:40:02.023Z,282.35
2022-09-26T02:41:02.024Z,282.35
2022-09-26T02:42:02.022Z,282.35
2022-09-26T02:43:02.016Z,282.35
2022-09-26T02:44:02.024Z,282.35
2022-09-26T02:45:02.020Z,282.35
2022-09-26T02:46:02.114Z,282.35
2022-09-26T02:47:02.025Z,282.35
2022-09-26T02:48:02.035Z,282.35
2022-09-26T02:49:02.027Z,282.35
2022-09-26T02:50:02.032Z,282.35
2022-09-26T02:51:02.041Z,282.35
2022-09-26T02:52:02.032Z,282.35
2022-09-26T02:53:02.030Z,282.35
2022-09-26T02:54:02.034Z,282.35
2022-09-26T02:55:02.033Z,282.35
2022-09-26T02:56:02.040Z,282.35
2022-09-26T02:57:02.034Z,282.35
2022-09-26T02:58:02.041Z,282.35
2022-09-26T02:59:02.034Z,282.35
2022-09-26T03:00:02.036Z,282.35
2022-09-26T03:01:02.146Z,282.35
2022-09-26T03:02:02.065Z,282.35
2022-09-26T03:03:02.036Z,282.35
2022-09-26T03:04:02.039Z,282.35
2022-09-26T03:05:02.072Z,282.35
2022-09-26T03:06:02.044Z,282.35
2022-09-26T03:07:02.037Z,282.35
2022-09-26T03:08:02.045Z,282.35
2022-09-26T03:09:02.050Z,282.35
2022-09-26T03:10:02.042Z,282.35
2022-09-26T03:11:02.051Z,282.35
2022-09-26T03:12:02.047Z,282.35
2022-09-26T03:13:02.046Z,282.35
2022-09-26T03:14:02.048Z,282.35
2022-09-26T03:15:02.050Z,282.35
2022-09-26T03:16:02.085Z,282.35
2022-09-26T03:17:02.043Z,282.35
2022-09-26T03:18:02.077Z,282.35
2022-09-26T03:19:02.063Z,282.35
2022-09-26T03:20:02.047Z,282.35
2022-09-26T03:21:02.065Z,282.35
2022-09-26T03:22:02.056Z,282.35
2022-09-26T03:23:02.047Z,282.35
2022-09-26T03:24:02.063Z,282.35
2022-09-26T03:25:02.046Z,282.35
2022-09-26T03:26:02.067Z,282.35
2022-09-26T03:27:02.065Z,282.35
2022-09-26T03:28:02.063Z,282.35
2022-09-26T03:29:02.057Z,282.35
2022-09-26T03:30:02.066Z,282.35
2022-09-26T03:31:02.064Z,282.35
2022-09-26T03:32:02.145Z,282.35
2022-09-26T03:33:02.063Z,282.35
2022-09-26T03:34:02.087Z,282.35
2022-09-26T03:35:02.067Z,282.35
2022-09-26T03:36:02.070Z,282.35
2022-09-26T03:37:02.066Z,282.35
2022-09-26T03:38:02.067Z,282.35
2022-09-26T03:39:02.069Z,282.35
2022-09-26T03:40:02.072Z,282.35
2022-09-26T03:41:02.227Z,282.35
2022-09-26T03:42:02.068Z,282.35
2022-09-26T03:43:02.071Z,282.35
2022-09-26T03:44:02.065Z,282.35
2022-09-26T03:45:02.072Z,282.35
2022-09-26T03:46:02.133Z,282.35
2022-09-26T03:47:02.077Z,282.35
2022-09-26T03:48:02.129Z,282.35
2022-09-26T03:49:02.074Z,70.59
2022-09-26T03:50:02.101Z,39.53
2022-09-26T03:51:02.078Z,91.76
2022-09-26T03:52:02.086Z,91.76
2022-09-26T03:53:02.077Z,91.76
2022-09-26T03:54:02.079Z,91.76
2022-09-26T03:55:02.084Z,91.76
2022-09-26T03:56:02.080Z,91.76
2022-09-26T03:57:02.083Z,91.76
2022-09-26T03:58:02.078Z,91.76
2022-09-26T03:59:02.084Z,91.76
2022-09-26T04:00:02.098Z,91.76
2022-09-26T04:01:02.135Z,91.76
2022-09-26T04:02:02.191Z,91.76
2022-09-26T04:03:02.091Z,91.76
2022-09-26T04:04:02.095Z,91.76
2022-09-26T04:05:02.084Z,91.76
2022-09-26T04:06:02.193Z,91.76
2022-09-26T04:07:02.085Z,91.76
2022-09-26T04:08:02.089Z,91.76
2022-09-26T04:09:02.086Z,91.76
2022-09-26T04:10:02.085Z,91.76
2022-09-26T04:11:02.083Z,91.76
2022-09-26T04:12:02.099Z,91.76
2022-09-26T04:13:02.089Z,91.76
2022-09-26T04:14:02.096Z,91.76
2022-09-26T04:15:02.091Z,91.76
2022-09-26T04:16:02.153Z,91.76
2022-09-26T04:17:02.100Z,91.76
2022-09-26T04:18:02.097Z,91.76
2022-09-26T04:19:02.090Z,91.76
2022-09-26T04:20:02.099Z,91.76
2022-09-26T04:21:03.988Z,91.76
2022-09-26T04:22:02.117Z,91.76
2022-09-26T04:23:02.097Z,91.76
2022-09-26T04:24:02.097Z,91.76
2022-09-26T04:25:02.098Z,91.76
2022-09-26T04:26:02.107Z,91.76
2022-09-26T04:27:02.108Z,91.76
2022-09-26T04:28:02.106Z,91.76
2022-09-26T04:29:02.103Z,91.76
2022-09-26T04:30:02.109Z,91.76
2022-09-26T04:31:02.109Z,91.76
2022-09-26T04:32:02.153Z,91.76
2022-09-26T04:33:02.122Z,91.76
2022-09-26T04:34:02.111Z,91.76
2022-09-26T04:35:02.114Z,91.76
2022-09-26T04:36:02.108Z,91.76
2022-09-26T04:37:02.110Z,91.76
2022-09-26T04:38:02.148Z,91.76
2022-09-26T04:39:02.119Z,91.76
2022-09-26T04:40:02.117Z,91.76
2022-09-26T04:41:02.225Z,91.76
2022-09-26T04:42:02.119Z,91.76
2022-09-26T04:43:02.117Z,91.76
2022-09-26T04:44:02.124Z,91.76
2022-09-26T04:45:02.116Z,91.76
2022-09-26T04:46:02.167Z,91.76
2022-09-26T04:47:02.110Z,91.76
2022-09-26T04:48:02.114Z,91.76
2022-09-26T04:49:02.121Z,91.76
2022-09-26T04:50:02.118Z,91.76
2022-09-26T04:51:02.119Z,91.76
2022-09-26T04:52:02.108Z,91.76
2022-09-26T04:53:02.126Z,91.76
2022-09-26T04:54:02.224Z,91.76
2022-09-26T04:55:02.118Z,91.76
2022-09-26T04:56:02.127Z,91.76
2022-09-26T04:57:02.118Z,91.76
2022-09-26T04:58:02.126Z,91.76
2022-09-26T04:59:02.116Z,91.76
2022-09-26T05:00:02.119Z,91.76
2022-09-26T05:01:02.191Z,91.76
2022-09-26T05:02:02.165Z,91.76
2022-09-26T05:03:02.136Z,91.76
2022-09-26T05:04:02.127Z,91.76
2022-09-26T05:05:02.132Z,91.76
2022-09-26T05:06:02.133Z,91.76
2022-09-26T05:07:02.130Z,91.76
2022-09-26T05:08:02.138Z,91.76
2022-09-26T05:09:02.125Z,91.76
2022-09-26T05:10:02.159Z,91.76
2022-09-26T05:11:02.143Z,91.76
2022-09-26T05:12:02.132Z,91.76
2022-09-26T05:13:02.145Z,91.76
2022-09-26T05:14:02.138Z,91.76
2022-09-26T05:15:02.134Z,91.76
2022-09-26T05:16:02.181Z,91.76
2022-09-26T05:17:02.138Z,91.76
2022-09-26T05:18:02.135Z,91.76
2022-09-26T05:19:02.137Z,91.76
2022-09-26T05:20:02.144Z,91.76
2022-09-26T05:21:02.142Z,91.76
2022-09-26T05:22:02.144Z,91.76
2022-09-26T05:23:02.145Z,91.76
2022-09-26T05:24:02.154Z,91.76
2022-09-26T05:25:02.136Z,91.76
2022-09-26T05:26:02.168Z,91.76
2022-09-26T05:27:02.141Z,91.76
2022-09-26T05:28:02.148Z,91.76
2022-09-26T05:29:07.110Z,91.76
2022-09-26T05:30:02.152Z,91.76
2022-09-26T05:31:02.143Z,91.76
2022-09-26T05:32:02.248Z,91.76
2022-09-26T05:33:02.151Z,91.76
2022-09-26T05:34:02.147Z,91.76
2022-09-26T05:35:02.154Z,91.76
2022-09-26T05:36:02.147Z,91.76
2022-09-26T05:37:02.149Z,91.76
2022-09-26T05:38:02.153Z,91.76
2022-09-26T05:39:02.150Z,91.76
2022-09-26T05:40:02.142Z,91.76
2022-09-26T05:41:02.229Z,91.76
2022-09-26T05:42:02.162Z,91.76
2022-09-26T05:43:02.154Z,91.76
2022-09-26T05:44:02.146Z,91.76
2022-09-26T05:45:02.150Z,91.76
2022-09-26T05:46:02.147Z,91.76
2022-09-26T05:47:02.240Z,91.76
2022-09-26T05:48:02.145Z,91.76
2022-09-26T05:49:02.158Z,91.76
2022-09-26T05:50:02.148Z,91.76
2022-09-26T05:51:02.148Z,91.76
2022-09-26T05:52:02.157Z,91.76
2022-09-26T05:53:02.153Z,139.76
2022-09-26T05:54:02.152Z,139.76
2022-09-26T05:55:02.158Z,139.76
2022-09-26T05:56:02.170Z,139.76
2022-09-26T05:57:02.160Z,139.76
2022-09-26T05:58:02.180Z,139.76
2022-09-26T05:59:02.153Z,139.76
2022-09-26T06:00:02.163Z,139.76
2022-09-26T06:01:02.221Z,139.76
2022-09-26T06:02:02.217Z,139.76
2022-09-26T06:03:02.157Z,139.76
2022-09-26T06:04:02.160Z,139.76
2022-09-26T06:05:02.158Z,139.76
2022-09-26T06:06:02.165Z,139.76
2022-09-26T06:07:02.152Z,139.76
2022-09-26T06:08:02.155Z,139.76
2022-09-26T06:09:02.160Z,139.76
2022-09-26T06:10:02.154Z,139.76
2022-09-26T06:11:02.157Z,139.76
2022-09-26T06:12:02.153Z,139.76
2022-09-26T06:13:02.154Z,139.76
2022-09-26T06:14:02.175Z,139.76
2022-09-26T06:15:02.156Z,139.76
2022-09-26T06:16:02.218Z,139.76
2022-09-26T06:17:02.155Z,139.76
2022-09-26T06:18:02.156Z,139.76
2022-09-26T06:19:02.176Z,139.76
2022-09-26T06:20:02.154Z,139.76
2022-09-26T06:21:02.162Z,139.76
2022-09-26T06:22:02.157Z,139.76
2022-09-26T06:23:02.174Z,139.76
2022-09-26T06:24:02.168Z,139.76
2022-09-26T06:25:02.165Z,139.76
2022-09-26T06:26:02.171Z,139.76
2022-09-26T06:27:02.163Z,139.76
2022-09-26T06:28:02.170Z,139.76
2022-09-26T06:29:02.165Z,139.76
2022-09-26T06:30:02.184Z,139.76
2022-09-26T06:31:02.159Z,139.76
2022-09-26T06:32:02.187Z,139.76
2022-09-26T06:33:02.172Z,139.76
2022-09-26T06:34:02.171Z,139.76
2022-09-26T06:35:02.164Z,139.76
2022-09-26T06:36:02.162Z,139.76
2022-09-26T06:37:02.164Z,139.76
2022-09-26T06:38:02.166Z,139.76
2022-09-26T06:39:02.165Z,139.76
2022-09-26T06:40:02.172Z,139.76
2022-09-26T06:41:02.257Z,139.76
2022-09-26T06:42:02.173Z,139.76
2022-09-26T06:43:02.176Z,139.76
2022-09-26T06:44:02.173Z,139.76
2022-09-26T06:45:02.172Z,139.76
2022-09-26T06:46:02.193Z,139.76
2022-09-26T06:47:02.233Z,139.76
2022-09-26T06:48:02.173Z,139.76
2022-09-26T06:49:02.171Z,139.76
2022-09-26T06:50:02.164Z,139.76
2022-09-26T06:51:02.179Z,139.76
2022-09-26T06:52:02.180Z,139.76
2022-09-26T06:53:08.734Z,139.76
2022-09-26T06:54:02.187Z,139.76
2022-09-26T06:55:02.185Z,139.76
2022-09-26T06:56:02.194Z,139.76
2022-09-26T06:57:02.202Z,139.76
2022-09-26T06:58:02.191Z,139.76
2022-09-26T06:59:02.180Z,139.76
2022-09-26T07:00:02.191Z,139.76
2022-09-26T07:01:02.337Z,139.76
2022-09-26T07:02:02.365Z,139.76
2022-09-26T07:03:02.196Z,139.76
2022-09-26T07:04:02.193Z,139.76
2022-09-26T07:05:02.182Z,139.76
2022-09-26T07:06:02.193Z,139.76
2022-09-26T07:07:02.189Z,139.76
2022-09-26T07:08:02.190Z,139.76
2022-09-26T07:09:04.791Z,139.76
2022-09-26T07:10:02.191Z,139.76
2022-09-26T07:11:16.071Z,139.76
2022-09-26T07:12:16.659Z,139.76
2022-09-26T07:13:02.197Z,139.76
2022-09-26T07:14:02.402Z,139.76
2022-09-26T07:15:02.191Z,139.76
2022-09-26T07:16:02.254Z,139.76
2022-09-26T07:17:02.198Z,139.76
2022-09-26T07:18:02.353Z,139.76
2022-09-26T07:19:02.200Z,139.76
2022-09-26T07:20:02.199Z,139.76
2022-09-26T07:21:02.194Z,139.76
2022-09-26T07:22:02.210Z,139.76
2022-09-26T07:23:02.202Z,139.76
2022-09-26T07:24:02.198Z,139.76
2022-09-26T07:25:02.213Z,139.76
2022-09-26T07:26:02.199Z,139.76
2022-09-26T07:27:02.205Z,139.76
2022-09-26T07:28:02.209Z,139.76
2022-09-26T07:29:02.204Z,139.76
2022-09-26T07:30:02.209Z,139.76
2022-09-26T07:31:02.327Z,139.76
2022-09-26T07:32:02.258Z,139.76
2022-09-26T07:33:02.207Z,139.76
2022-09-26T07:34:02.231Z,139.76
2022-09-26T07:35:02.214Z,139.76
2022-09-26T07:36:05.379Z,139.76
2022-09-26T07:37:02.213Z,139.76
2022-09-26T07:38:02.229Z,139.76
2022-09-26T07:39:02.233Z,139.76
2022-09-26T07:40:02.299Z,139.76
2022-09-26T07:41:02.267Z,139.76
2022-09-26T07:42:02.214Z,139.76
2022-09-26T07:45:22.199Z,139.76
2022-09-26T07:46:02.208Z,139.76
2022-09-26T07:47:02.256Z,139.76
2022-09-26T07:48:02.221Z,139.76
2022-09-26T07:49:02.224Z,139.76
2022-09-26T07:50:02.355Z,139.76
2022-09-26T07:51:05.714Z,139.76
2022-09-26T07:52:02.215Z,139.76
2022-09-26T07:53:02.221Z,139.76
2022-09-26T07:54:02.210Z,139.76
2022-09-26T07:55:02.226Z,139.76
2022-09-26T07:56:02.220Z,139.76
2022-09-26T07:57:02.219Z,139.76
2022-09-26T07:58:02.234Z,139.76
2022-09-26T07:59:02.229Z,139.76
2022-09-26T08:00:02.223Z,139.76
2022-09-26T08:01:02.224Z,139.76
2022-09-26T08:02:02.370Z,139.76
2022-09-26T08:03:02.263Z,139.76
2022-09-26T08:04:02.216Z,139.76
2022-09-26T08:05:02.221Z,139.76
2022-09-26T08:06:02.398Z,139.76
2022-09-26T08:07:02.227Z,139.76
2022-09-26T08:08:02.220Z,139.76
2022-09-26T08:09:02.225Z,139.76
2022-09-26T08:10:02.225Z,139.76
2022-09-26T08:11:04.092Z,139.76
2022-09-26T08:12:02.226Z,139.76
2022-09-26T08:13:02.227Z,139.76
2022-09-26T08:14:02.224Z,139.76
2022-09-26T08:15:02.229Z,139.76
2022-09-26T08:16:02.308Z,139.76
2022-09-26T08:17:02.224Z,139.76
2022-09-26T08:18:02.225Z,139.76
2022-09-26T08:19:02.240Z,139.76
2022-09-26T08:20:02.225Z,139.76
2022-09-26T08:21:02.222Z,139.76
2022-09-26T08:22:02.247Z,139.76
2022-09-26T08:23:02.231Z,139.76
2022-09-26T08:24:02.225Z,139.76
2022-09-26T08:25:02.231Z,139.76
2022-09-26T08:26:02.222Z,139.76
2022-09-26T08:27:02.221Z,139.76
2022-09-26T08:28:02.227Z,139.76
2022-09-26T08:29:02.239Z,139.76
2022-09-26T08:30:02.227Z,139.76
2022-09-26T08:31:02.272Z,139.76
2022-09-26T08:32:02.231Z,139.76
2022-09-26T08:33:02.232Z,139.76
2022-09-26T08:34:02.231Z,139.76
2022-09-26T08:35:02.220Z,139.76
2022-09-26T08:36:02.228Z,139.76
2022-09-26T08:37:02.228Z,139.76
2022-09-26T08:38:02.258Z,139.76
2022-09-26T08:39:02.235Z,139.76
2022-09-26T08:40:02.227Z,139.76
2022-09-26T08:41:02.307Z,139.76
2022-09-26T08:42:02.233Z,139.76
2022-09-26T08:43:02.232Z,139.76
2022-09-26T08:44:02.237Z,139.76
2022-09-26T08:45:02.226Z,139.76
2022-09-26T08:46:02.323Z,139.76
2022-09-26T08:47:02.331Z,139.76
2022-09-26T08:48:02.232Z,139.76
2022-09-26T08:49:02.232Z,139.76
2022-09-26T08:50:02.240Z,139.76
2022-09-26T08:51:02.246Z,139.76
2022-09-26T08:52:02.234Z,139.76
2022-09-26T08:53:02.236Z,139.76
2022-09-26T08:54:02.253Z,139.76
2022-09-26T08:55:02.241Z,139.76
2022-09-26T08:56:02.235Z,139.76
2022-09-26T08:57:02.236Z,139.76
2022-09-26T08:58:02.233Z,139.76
2022-09-26T08:59:02.235Z,139.76
2022-09-26T09:00:02.229Z,139.76
2022-09-26T09:01:02.240Z,139.76
2022-09-26T09:02:02.325Z,139.76
2022-09-26T09:03:02.353Z,139.76
2022-09-26T09:04:02.243Z,139.76
2022-09-26T09:05:02.245Z,139.76
2022-09-26T09:06:02.238Z,139.76
2022-09-26T09:07:02.235Z,139.76
2022-09-26T09:08:02.233Z,139.76
2022-09-26T09:09:02.238Z,139.76
2022-09-26T09:10:02.293Z,306.35
2022-09-26T09:11:02.243Z,286.59
2022-09-26T09:12:02.234Z,324.71
2022-09-26T09:13:02.232Z,285.18
2022-09-26T09:14:02.239Z,290.82
2022-09-26T09:15:23.864Z,283.76
2022-09-26T09:16:02.309Z,286.59
2022-09-26T09:17:02.248Z,285.18
2022-09-26T09:18:02.238Z,285.18
2022-09-26T09:19:02.237Z,285.18
2022-09-26T09:20:02.253Z,280.94
2022-09-26T09:21:02.236Z,266.82
2022-09-26T09:22:02.243Z,312
2022-09-26T09:23:02.237Z,333.18
2022-09-26T09:24:02.240Z,8.47
2022-09-26T09:25:02.237Z,25.41
2022-09-26T09:28:07.865Z,259.76
2022-09-26T09:29:02.244Z,265.41
2022-09-26T09:30:02.425Z,268.24
2022-09-26T09:31:02.383Z,259.76
2022-09-26T09:32:02.244Z,299.29
2022-09-26T09:33:02.246Z,9.88
2022-09-26T09:34:02.243Z,9.88
2022-09-26T09:35:02.244Z,9.88
2022-09-26T09:36:02.246Z,9.88
2022-09-26T09:37:02.244Z,9.88
2022-09-26T09:38:02.246Z,296.47
2022-09-26T09:39:02.241Z,312
2022-09-26T09:40:02.265Z,299.29
2022-09-26T09:41:02.317Z,313.41
2022-09-26T09:42:02.274Z,282.35
2022-09-26T09:43:02.252Z,323.29
2022-09-26T09:44:02.271Z,343.06
2022-09-26T09:45:02.245Z,279.53
2022-09-26T09:46:02.300Z,292.24
2022-09-26T09:47:02.285Z,15.53
2022-09-26T09:48:02.246Z,21.18
2022-09-26T09:49:02.253Z,300.71
2022-09-26T09:50:02.264Z,288
2022-09-26T09:51:02.249Z,302.12
2022-09-26T09:52:02.249Z,285.18
2022-09-26T09:53:02.256Z,295.06
2022-09-26T09:54:02.252Z,323.29
2022-09-26T09:55:02.245Z,300.71
2022-09-26T09:56:02.256Z,286.59
2022-09-26T09:57:02.253Z,12.71
2022-09-26T09:58:02.286Z,304.94
2022-09-26T09:59:02.251Z,262.59
2022-09-26T10:00:02.474Z,282.35
2022-09-26T10:01:02.258Z,50.82
2022-09-26T10:02:02.253Z,328.94
2022-09-26T10:03:02.385Z,317.65
2022-09-26T10:04:02.254Z,319.06
2022-09-26T10:05:02.258Z,18.35
2022-09-26T10:06:02.247Z,340.24
2022-09-26T10:07:02.255Z,39.53
2022-09-26T10:08:02.247Z,317.65
2022-09-26T10:09:36.113Z,300.71
2022-09-26T10:10:02.254Z,354.35
2022-09-26T10:11:02.266Z,312
2022-09-26T10:12:02.254Z,237.18
2022-09-26T10:13:02.255Z,336
2022-09-26T10:14:02.286Z,11.29
2022-09-26T10:15:02.348Z,28.24
2022-09-26T10:16:02.336Z,258.35
2022-09-26T10:17:02.271Z,271.06
2022-09-26T10:18:23.290Z,221.65
2022-09-26T10:19:03.472Z,347.29
2022-09-26T10:20:02.265Z,336
2022-09-26T10:21:02.257Z,360
2022-09-26T10:22:02.266Z,18.35
2022-09-26T10:23:02.262Z,35.29
2022-09-26T10:24:02.260Z,309.18
2022-09-26T10:25:02.260Z,300.71
2022-09-26T10:26:02.259Z,300.71
2022-09-26T10:27:02.267Z,7.06
2022-09-26T10:28:02.264Z,22.59
2022-09-26T10:29:02.266Z,352.94
2022-09-26T10:30:02.291Z,33.88
2022-09-26T10:31:02.341Z,45.18
2022-09-26T10:32:02.268Z,360
2022-09-26T10:33:02.265Z,14.12
2022-09-26T10:34:02.276Z,11.29
2022-09-26T10:35:02.286Z,355.76
2022-09-26T10:36:02.249Z,357.18
2022-09-26T10:37:02.266Z,351.53
2022-09-26T10:38:02.266Z,330.35
2022-09-26T10:39:02.265Z,360
2022-09-26T10:40:02.266Z,348.71
2022-09-26T10:41:02.384Z,296.47
2022-09-26T10:42:02.264Z,306.35
2022-09-26T10:43:02.267Z,280.94
2022-09-26T10:44:02.258Z,347.29
2022-09-26T10:45:02.270Z,290.82
2022-09-26T10:46:02.345Z,334.59
2022-09-26T10:47:02.265Z,341.65
2022-09-26T10:48:02.269Z,289.41
2022-09-26T10:49:02.260Z,295.06
2022-09-26T10:50:02.269Z,297.88
2022-09-26T10:51:02.273Z,300.71
2022-09-26T10:52:02.266Z,0
2022-09-26T10:53:02.267Z,289.41
2022-09-26T10:54:02.274Z,9.88
2022-09-26T10:55:02.275Z,317.65
2022-09-26T10:56:02.272Z,5.65
2022-09-26T10:57:02.266Z,313.41
2022-09-26T10:58:02.272Z,271.06
2022-09-26T10:59:02.262Z,306.35
2022-09-26T11:00:02.266Z,29.65
2022-09-26T11:01:02.276Z,337.41
2022-09-26T11:02:02.397Z,357.18
2022-09-26T11:03:02.272Z,360
2022-09-26T11:04:02.299Z,49.41
2022-09-26T11:05:02.276Z,8.47
2022-09-26T11:06:02.273Z,25.41
2022-09-26T11:07:02.285Z,327.53
2022-09-26T11:08:02.267Z,314.82
2022-09-26T11:09:02.280Z,289.41
2022-09-26T11:10:02.276Z,312
2022-09-26T11:11:02.283Z,288
2022-09-26T11:12:02.273Z,344.47
2022-09-26T11:13:02.273Z,282.35
2022-09-26T11:14:02.279Z,197.65
2022-09-26T11:15:02.274Z,273.88
2022-09-26T11:16:02.382Z,268.24
2022-09-26T11:17:02.279Z,323.29
2022-09-26T11:18:02.305Z,300.71
2022-09-26T11:19:02.275Z,285.18
2022-09-26T11:20:02.298Z,289.41
2022-09-26T11:21:02.278Z,295.06
2022-09-26T11:22:05.953Z,269.65
2022-09-26T11:23:02.283Z,210.35
2022-09-26T11:24:02.283Z,299.29
2022-09-26T11:25:02.278Z,230.12
2022-09-26T11:26:02.279Z,169.41
2022-09-26T11:27:02.289Z,324.71
2022-09-26T11:28:02.281Z,207.53
2022-09-26T11:29:02.281Z,151.06
2022-09-26T11:30:02.340Z,313.41
2022-09-26T11:31:02.335Z,307.76
2022-09-26T11:32:02.279Z,299.29
2022-09-26T11:33:02.283Z,269.65
2022-09-26T11:34:02.307Z,278.12
2022-09-26T11:35:02.312Z,296.47
2022-09-26T11:36:02.287Z,266.82
2022-09-26T11:37:02.284Z,306.35
2022-09-26T11:38:02.285Z,279.53
2022-09-26T11:39:02.294Z,269.65
2022-09-26T11:40:04.816Z,304.94
2022-09-26T11:41:02.380Z,15.53
2022-09-26T11:42:02.296Z,296.47
2022-09-26T11:43:02.314Z,297.88
2022-09-26T11:44:02.287Z,282.35
2022-09-26T11:45:02.291Z,280.94
2022-09-26T11:46:02.301Z,286.59
2022-09-26T11:47:02.296Z,307.76
2022-09-26T11:48:02.301Z,286.59
2022-09-26T11:49:02.300Z,302.12
2022-09-26T11:50:02.313Z,296.47
2022-09-26T11:51:02.296Z,304.94
2022-09-26T11:52:02.288Z,293.65
2022-09-26T11:53:02.307Z,302.12
2022-09-26T11:54:02.300Z,309.18
2022-09-26T11:55:02.310Z,293.65
2022-09-26T11:56:02.294Z,292.24
2022-09-26T11:57:02.290Z,286.59
2022-09-26T11:58:03.515Z,292.24
2022-09-26T11:59:02.294Z,307.76
2022-09-26T12:00:02.312Z,256.94
2022-09-26T12:01:02.293Z,234.35
2022-09-26T12:02:02.295Z,275.29
2022-09-26T12:03:02.378Z,264
2022-09-26T12:04:02.459Z,268.24
2022-09-26T12:05:02.299Z,282.35
2022-09-26T12:06:02.320Z,273.88
2022-09-26T12:07:02.304Z,296.47
2022-09-26T12:08:02.293Z,297.88
2022-09-26T12:09:02.291Z,288
2022-09-26T12:10:02.296Z,313.41
2022-09-26T12:11:02.293Z,283.76
2022-09-26T12:12:02.296Z,297.88
2022-09-26T12:13:02.289Z,297.88
2022-09-26T12:14:02.302Z,299.29
2022-09-26T12:15:02.340Z,283.76
2022-09-26T12:16:02.337Z,288
2022-09-26T12:17:02.296Z,283.76
2022-09-26T12:18:02.296Z,296.47
2022-09-26T12:19:02.298Z,266.82
2022-09-26T12:20:02.301Z,306.35
2022-09-26T12:21:02.296Z,313.41
2022-09-26T12:22:02.317Z,293.65
2022-09-26T12:23:02.295Z,283.76
2022-09-26T12:24:02.298Z,297.88
2022-09-26T12:25:02.301Z,304.94
2022-09-26T12:26:02.300Z,320.47
2022-09-26T12:27:02.298Z,313.41
2022-09-26T12:28:02.303Z,302.12
2022-09-26T12:29:02.302Z,296.47
2022-09-26T12:30:02.302Z,299.29
2022-09-26T12:31:02.357Z,316.24
2022-09-26T12:32:02.312Z,300.71
2022-09-26T12:33:02.299Z,316.24
2022-09-26T12:34:02.313Z,292.24
2022-09-26T12:35:02.305Z,327.53
2022-09-26T12:36:02.303Z,40.94
2022-09-26T12:37:02.302Z,24
2022-09-26T12:38:02.325Z,72
2022-09-26T12:39:02.312Z,28.24